sensor_id;sensor_type;location;lat;lon;timestamp;temperature;humidity
23289;DHT22;11813;50.834;4.280;2022-11-02T00:00:12;14.50;99.90
23289;DHT22;11813;50.834;4.280;2022-11-02T00:02:39;14.30;99.90
23289;DHT22;11813;50.834;4.280;2022-11-02T00:05:05;14.40;99.90
23289;DHT22;11813;50.834;4.280;2022-11-02T00:07:30;14.40;99.90
23289;DHT22;11813;50.834;4.280;2022-11-02T00:09:56;14.40;99.90
23289;DHT22;11813;50.834;4.280;2022-11-02T00:12:21;14.40;99.90
23289;DHT22;11813;50.834;4.280;2022-11-02T00:14:47;14.30;99.90
23289;DHT22;11813;50.834;4.280;2022-11-02T00:17:12;14.20;99.90
23289;DHT22;11813;50.834;4.280;2022-11-02T00:19:38;14.30;99.90
23289;DHT22;11813;50.834;4.280;2022-11-02T00:22:04;14.20;99.90
23289;DHT22;11813;50.834;4.280;2022-11-02T00:24:31;14.20;99.90
23289;DHT22;11813;50.834;4.280;2022-11-02T00:26:57;14.20;99.90
23289;DHT22;11813;50.834;4.280;2022-11-02T00:29:23;14.20;99.90
23289;DHT22;11813;50.834;4.280;2022-11-02T00:31:49;14.30;99.90
23289;DHT22;11813;50.834;4.280;2022-11-02T00:34:15;14.20;99.90
23289;DHT22;11813;50.834;4.280;2022-11-02T00:36:40;14.20;99.90
23289;DHT22;11813;50.834;4.280;2022-11-02T00:39:06;14.20;99.90
23289;DHT22;11813;50.834;4.280;2022-11-02T00:41:31;14.20;99.90
23289;DHT22;11813;50.834;4.280;2022-11-02T00:43:57;14.20;99.90
23289;DHT22;11813;50.834;4.280;2022-11-02T00:46:23;14.10;99.90
23289;DHT22;11813;50.834;4.280;2022-11-02T00:48:48;14.10;99.90
23289;DHT22;11813;50.834;4.280;2022-11-02T00:51:14;14.00;99.90
23289;DHT22;11813;50.834;4.280;2022-11-02T00:53:40;14.10;99.90
23289;DHT22;11813;50.834;4.280;2022-11-02T00:56:06;14.10;99.90
23289;DHT22;11813;50.834;4.280;2022-11-02T00:58:32;14.10;99.90
23289;DHT22;11813;50.834;4.280;2022-11-02T01:00:57;14.00;99.90
23289;DHT22;11813;50.834;4.280;2022-11-02T01:03:23;14.00;99.90
23289;DHT22;11813;50.834;4.280;2022-11-02T01:05:48;14.00;99.90
23289;DHT22;11813;50.834;4.280;2022-11-02T01:08:14;14.00;99.90
23289;DHT22;11813;50.834;4.280;2022-11-02T01:10:39;14.10;99.90
23289;DHT22;11813;50.834;4.280;2022-11-02T01:13:05;14.00;99.90
23289;DHT22;11813;50.834;4.280;2022-11-02T01:15:30;14.00;99.90
23289;DHT22;11813;50.834;4.280;2022-11-02T01:17:56;14.00;99.90
23289;DHT22;11813;50.834;4.280;2022-11-02T01:20:22;13.90;99.90
23289;DHT22;11813;50.834;4.280;2022-11-02T01:22:48;14.00;99.90
23289;DHT22;11813;50.834;4.280;2022-11-02T01:25:13;14.00;99.90
23289;DHT22;11813;50.834;4.280;2022-11-02T01:27:39;14.00;99.90
23289;DHT22;11813;50.834;4.280;2022-11-02T01:30:05;14.00;99.90
23289;DHT22;11813;50.834;4.280;2022-11-02T01:32:31;13.90;99.90
23289;DHT22;11813;50.834;4.280;2022-11-02T01:34:56;13.80;99.90
23289;DHT22;11813;50.834;4.280;2022-11-02T01:37:22;13.80;99.90
23289;DHT22;11813;50.834;4.280;2022-11-02T01:39:48;13.90;99.90
23289;DHT22;11813;50.834;4.280;2022-11-02T01:42:23;13.90;99.90
23289;DHT22;11813;50.834;4.280;2022-11-02T01:44:48;13.80;99.90
23289;DHT22;11813;50.834;4.280;2022-11-02T01:47:22;13.80;99.90
23289;DHT22;11813;50.834;4.280;2022-11-02T01:50:00;13.70;99.90
23289;DHT22;11813;50.834;4.280;2022-11-02T01:52:30;13.70;99.90
23289;DHT22;11813;50.834;4.280;2022-11-02T01:57:37;13.80;99.90
23289;DHT22;11813;50.834;4.280;2022-11-02T02:00:09;13.80;99.90
23289;DHT22;11813;50.834;4.280;2022-11-02T02:02:38;13.90;99.90
23289;DHT22;11813;50.834;4.280;2022-11-02T02:05:08;13.70;99.90
23289;DHT22;11813;50.834;4.280;2022-11-02T02:07:37;13.70;99.90
23289;DHT22;11813;50.834;4.280;2022-11-02T02:10:05;13.70;99.90
23289;DHT22;11813;50.834;4.280;2022-11-02T02:12:32;13.70;99.90
23289;DHT22;11813;50.834;4.280;2022-11-02T02:14:59;13.70;99.90
23289;DHT22;11813;50.834;4.280;2022-11-02T02:17:54;13.70;99.90
23289;DHT22;11813;50.834;4.280;2022-11-02T02:26:27;13.70;99.90
23289;DHT22;11813;50.834;4.280;2022-11-02T02:29:09;13.70;99.90
23289;DHT22;11813;50.834;4.280;2022-11-02T02:31:42;13.60;99.90
23289;DHT22;11813;50.834;4.280;2022-11-02T02:34:19;13.60;99.90
23289;DHT22;11813;50.834;4.280;2022-11-02T02:36:50;13.50;99.90
23289;DHT22;11813;50.834;4.280;2022-11-02T02:39:28;13.60;99.90
23289;DHT22;11813;50.834;4.280;2022-11-02T02:42:20;13.50;99.90
23289;DHT22;11813;50.834;4.280;2022-11-02T02:45:12;13.60;99.90
23289;DHT22;11813;50.834;4.280;2022-11-02T02:47:53;13.60;99.90
23289;DHT22;11813;50.834;4.280;2022-11-02T02:50:24;13.50;99.90
23289;DHT22;11813;50.834;4.280;2022-11-02T02:52:51;13.60;99.90
23289;DHT22;11813;50.834;4.280;2022-11-02T02:55:22;13.60;99.90
23289;DHT22;11813;50.834;4.280;2022-11-02T02:57:50;13.40;99.90
23289;DHT22;11813;50.834;4.280;2022-11-02T03:00:17;13.50;99.90
23289;DHT22;11813;50.834;4.280;2022-11-02T03:02:44;13.50;99.90
23289;DHT22;11813;50.834;4.280;2022-11-02T03:05:28;13.50;99.90
23289;DHT22;11813;50.834;4.280;2022-11-02T03:07:56;13.40;99.90
23289;DHT22;11813;50.834;4.280;2022-11-02T03:10:41;13.40;99.90
23289;DHT22;11813;50.834;4.280;2022-11-02T03:13:09;13.40;99.90
23289;DHT22;11813;50.834;4.280;2022-11-02T03:15:46;13.50;99.90
23289;DHT22;11813;50.834;4.280;2022-11-02T03:24:04;13.40;99.90
23289;DHT22;11813;50.834;4.280;2022-11-02T03:29:23;13.30;99.90
23289;DHT22;11813;50.834;4.280;2022-11-02T03:31:54;13.30;99.90
23289;DHT22;11813;50.834;4.280;2022-11-02T03:34:43;13.30;99.90
23289;DHT22;11813;50.834;4.280;2022-11-02T03:37:51;13.30;99.90
23289;DHT22;11813;50.834;4.280;2022-11-02T03:40:28;13.30;99.90
23289;DHT22;11813;50.834;4.280;2022-11-02T03:42:55;13.20;99.90
23289;DHT22;11813;50.834;4.280;2022-11-02T03:45:25;13.10;99.90
23289;DHT22;11813;50.834;4.280;2022-11-02T03:48:00;13.20;99.90
23289;DHT22;11813;50.834;4.280;2022-11-02T03:50:26;13.20;99.90
23289;DHT22;11813;50.834;4.280;2022-11-02T03:52:57;13.20;99.90
23289;DHT22;11813;50.834;4.280;2022-11-02T03:55:38;13.20;99.90
23289;DHT22;11813;50.834;4.280;2022-11-02T03:58:05;13.10;99.90
23289;DHT22;11813;50.834;4.280;2022-11-02T04:00:34;13.00;99.90
23289;DHT22;11813;50.834;4.280;2022-11-02T04:03:01;13.00;99.90
23289;DHT22;11813;50.834;4.280;2022-11-02T04:05:30;13.00;99.90
23289;DHT22;11813;50.834;4.280;2022-11-02T04:07:56;13.00;99.90
23289;DHT22;11813;50.834;4.280;2022-11-02T04:10:40;13.00;99.90
23289;DHT22;11813;50.834;4.280;2022-11-02T04:13:26;13.00;99.90
23289;DHT22;11813;50.834;4.280;2022-11-02T04:16:10;13.00;99.90
23289;DHT22;11813;50.834;4.280;2022-11-02T04:18:36;13.00;99.90
23289;DHT22;11813;50.834;4.280;2022-11-02T04:21:20;12.90;99.90
23289;DHT22;11813;50.834;4.280;2022-11-02T04:23:45;12.90;99.90
23289;DHT22;11813;50.834;4.280;2022-11-02T04:26:30;12.90;99.90
23289;DHT22;11813;50.834;4.280;2022-11-02T04:28:55;12.90;99.90
23289;DHT22;11813;50.834;4.280;2022-11-02T04:31:21;12.90;99.90
23289;DHT22;11813;50.834;4.280;2022-11-02T04:33:46;12.90;99.90
23289;DHT22;11813;50.834;4.280;2022-11-02T04:36:12;12.90;99.90
23289;DHT22;11813;50.834;4.280;2022-11-02T04:38:37;12.90;99.90
23289;DHT22;11813;50.834;4.280;2022-11-02T04:41:10;12.90;99.90
23289;DHT22;11813;50.834;4.280;2022-11-02T04:43:55;12.80;99.90
23289;DHT22;11813;50.834;4.280;2022-11-02T04:46:23;12.70;99.90
23289;DHT22;11813;50.834;4.280;2022-11-02T04:48:49;12.70;99.90
23289;DHT22;11813;50.834;4.280;2022-11-02T04:51:14;12.70;99.90
23289;DHT22;11813;50.834;4.280;2022-11-02T04:53:40;12.70;99.90
23289;DHT22;11813;50.834;4.280;2022-11-02T04:56:06;12.70;99.90
23289;DHT22;11813;50.834;4.280;2022-11-02T04:58:32;12.60;99.90
23289;DHT22;11813;50.834;4.280;2022-11-02T05:01:03;12.70;99.90
23289;DHT22;11813;50.834;4.280;2022-11-02T05:03:29;12.60;99.90
23289;DHT22;11813;50.834;4.280;2022-11-02T05:05:55;12.60;99.90
23289;DHT22;11813;50.834;4.280;2022-11-02T05:08:20;12.60;99.90
23289;DHT22;11813;50.834;4.280;2022-11-02T05:10:46;12.70;99.90
23289;DHT22;11813;50.834;4.280;2022-11-02T05:13:11;12.60;99.90
23289;DHT22;11813;50.834;4.280;2022-11-02T05:15:40;12.60;99.90
23289;DHT22;11813;50.834;4.280;2022-11-02T05:18:06;12.60;99.90
23289;DHT22;11813;50.834;4.280;2022-11-02T05:20:31;12.50;99.90
23289;DHT22;11813;50.834;4.280;2022-11-02T05:22:57;12.50;99.90
23289;DHT22;11813;50.834;4.280;2022-11-02T05:25:22;12.50;99.90
23289;DHT22;11813;50.834;4.280;2022-11-02T05:27:48;12.60;99.90
23289;DHT22;11813;50.834;4.280;2022-11-02T05:30:14;12.50;99.90
23289;DHT22;11813;50.834;4.280;2022-11-02T05:32:39;12.60;99.90
23289;DHT22;11813;50.834;4.280;2022-11-02T05:35:05;12.60;99.90
23289;DHT22;11813;50.834;4.280;2022-11-02T05:37:32;12.60;99.90
23289;DHT22;11813;50.834;4.280;2022-11-02T05:39:57;12.60;99.90
23289;DHT22;11813;50.834;4.280;2022-11-02T05:42:23;12.60;99.90
23289;DHT22;11813;50.834;4.280;2022-11-02T05:44:50;12.50;99.90
23289;DHT22;11813;50.834;4.280;2022-11-02T05:47:15;12.50;99.90
23289;DHT22;11813;50.834;4.280;2022-11-02T05:49:41;12.50;99.90
23289;DHT22;11813;50.834;4.280;2022-11-02T05:52:06;12.50;99.90
23289;DHT22;11813;50.834;4.280;2022-11-02T05:54:32;12.40;99.90
23289;DHT22;11813;50.834;4.280;2022-11-02T05:56:58;12.50;99.90
23289;DHT22;11813;50.834;4.280;2022-11-02T05:59:23;12.50;99.90
23289;DHT22;11813;50.834;4.280;2022-11-02T06:01:49;12.60;99.90
23289;DHT22;11813;50.834;4.280;2022-11-02T06:04:14;12.50;99.90
23289;DHT22;11813;50.834;4.280;2022-11-02T06:06:40;12.40;99.90
23289;DHT22;11813;50.834;4.280;2022-11-02T06:09:05;12.40;99.90
23289;DHT22;11813;50.834;4.280;2022-11-02T06:11:31;12.40;99.90
23289;DHT22;11813;50.834;4.280;2022-11-02T06:13:56;12.50;99.90
23289;DHT22;11813;50.834;4.280;2022-11-02T06:16:22;12.40;99.90
23289;DHT22;11813;50.834;4.280;2022-11-02T06:18:48;12.40;99.90
23289;DHT22;11813;50.834;4.280;2022-11-02T06:21:13;12.30;99.90
23289;DHT22;11813;50.834;4.280;2022-11-02T06:23:39;12.30;99.90
23289;DHT22;11813;50.834;4.280;2022-11-02T06:26:08;12.20;99.90
23289;DHT22;11813;50.834;4.280;2022-11-02T06:28:34;12.20;99.90
23289;DHT22;11813;50.834;4.280;2022-11-02T06:30:59;12.20;99.90
23289;DHT22;11813;50.834;4.280;2022-11-02T06:33:25;12.20;99.90
23289;DHT22;11813;50.834;4.280;2022-11-02T06:35:52;12.20;99.90
23289;DHT22;11813;50.834;4.280;2022-11-02T06:38:19;12.10;99.90
23289;DHT22;11813;50.834;4.280;2022-11-02T06:40:59;12.10;99.90
23289;DHT22;11813;50.834;4.280;2022-11-02T06:43:26;12.10;99.90
23289;DHT22;11813;50.834;4.280;2022-11-02T06:45:56;12.10;99.90
23289;DHT22;11813;50.834;4.280;2022-11-02T06:48:22;12.00;99.90
23289;DHT22;11813;50.834;4.280;2022-11-02T06:50:47;12.00;99.90
23289;DHT22;11813;50.834;4.280;2022-11-02T06:53:13;11.90;99.90
23289;DHT22;11813;50.834;4.280;2022-11-02T06:55:39;11.90;99.90
23289;DHT22;11813;50.834;4.280;2022-11-02T06:58:04;11.90;99.90
23289;DHT22;11813;50.834;4.280;2022-11-02T07:00:30;12.00;99.90
23289;DHT22;11813;50.834;4.280;2022-11-02T07:03:03;12.00;99.90
23289;DHT22;11813;50.834;4.280;2022-11-02T07:05:30;12.00;99.90
23289;DHT22;11813;50.834;4.280;2022-11-02T07:07:56;11.90;99.90
23289;DHT22;11813;50.834;4.280;2022-11-02T07:10:22;11.90;99.90
23289;DHT22;11813;50.834;4.280;2022-11-02T07:12:51;11.90;99.90
23289;DHT22;11813;50.834;4.280;2022-11-02T07:15:18;11.90;99.90
23289;DHT22;11813;50.834;4.280;2022-11-02T07:17:43;11.90;99.90
23289;DHT22;11813;50.834;4.280;2022-11-02T07:20:09;11.90;99.90
23289;DHT22;11813;50.834;4.280;2022-11-02T07:22:36;12.00;99.90
23289;DHT22;11813;50.834;4.280;2022-11-02T07:25:01;12.00;99.90
23289;DHT22;11813;50.834;4.280;2022-11-02T07:27:27;11.90;99.90
23289;DHT22;11813;50.834;4.280;2022-11-02T07:29:53;12.00;99.90
23289;DHT22;11813;50.834;4.280;2022-11-02T07:32:18;12.00;99.90
23289;DHT22;11813;50.834;4.280;2022-11-02T07:34:44;12.00;99.90
23289;DHT22;11813;50.834;4.280;2022-11-02T07:37:09;12.00;99.90
23289;DHT22;11813;50.834;4.280;2022-11-02T07:39:35;12.00;99.90
23289;DHT22;11813;50.834;4.280;2022-11-02T07:42:01;11.90;99.90
23289;DHT22;11813;50.834;4.280;2022-11-02T07:44:26;11.90;99.90
23289;DHT22;11813;50.834;4.280;2022-11-02T07:46:52;11.90;99.90
23289;DHT22;11813;50.834;4.280;2022-11-02T07:49:17;11.80;99.90
23289;DHT22;11813;50.834;4.280;2022-11-02T07:51:43;11.90;99.90
23289;DHT22;11813;50.834;4.280;2022-11-02T07:54:09;11.90;99.90
23289;DHT22;11813;50.834;4.280;2022-11-02T07:56:34;11.80;99.90
23289;DHT22;11813;50.834;4.280;2022-11-02T07:59:00;11.80;99.90
23289;DHT22;11813;50.834;4.280;2022-11-02T08:01:25;11.80;99.90
23289;DHT22;11813;50.834;4.280;2022-11-02T08:03:51;11.80;99.90
23289;DHT22;11813;50.834;4.280;2022-11-02T08:06:17;11.90;99.90
23289;DHT22;11813;50.834;4.280;2022-11-02T08:08:42;12.10;99.90
23289;DHT22;11813;50.834;4.280;2022-11-02T08:11:08;12.00;99.90
23289;DHT22;11813;50.834;4.280;2022-11-02T08:13:36;12.00;99.90
23289;DHT22;11813;50.834;4.280;2022-11-02T08:16:02;12.00;99.90
23289;DHT22;11813;50.834;4.280;2022-11-02T08:18:28;12.20;99.90
23289;DHT22;11813;50.834;4.280;2022-11-02T08:20:57;12.20;99.90
23289;DHT22;11813;50.834;4.280;2022-11-02T08:23:24;12.30;99.90
23289;DHT22;11813;50.834;4.280;2022-11-02T08:25:51;12.50;99.90
23289;DHT22;11813;50.834;4.280;2022-11-02T08:28:26;12.50;99.90
23289;DHT22;11813;50.834;4.280;2022-11-02T08:30:52;12.60;99.90
23289;DHT22;11813;50.834;4.280;2022-11-02T08:33:18;12.80;99.90
23289;DHT22;11813;50.834;4.280;2022-11-02T08:35:45;12.80;99.90
23289;DHT22;11813;50.834;4.280;2022-11-02T08:38:11;12.90;99.90
23289;DHT22;11813;50.834;4.280;2022-11-02T08:40:37;12.80;99.90
23289;DHT22;11813;50.834;4.280;2022-11-02T08:43:11;12.80;99.90
23289;DHT22;11813;50.834;4.280;2022-11-02T08:45:38;12.90;99.90
23289;DHT22;11813;50.834;4.280;2022-11-02T08:48:05;12.80;99.90
23289;DHT22;11813;50.834;4.280;2022-11-02T08:50:31;12.80;99.90
23289;DHT22;11813;50.834;4.280;2022-11-02T08:52:57;12.80;99.90
23289;DHT22;11813;50.834;4.280;2022-11-02T08:55:23;12.70;99.90
23289;DHT22;11813;50.834;4.280;2022-11-02T08:57:58;12.80;99.90
23289;DHT22;11813;50.834;4.280;2022-11-02T09:00:32;13.00;99.90
23289;DHT22;11813;50.834;4.280;2022-11-02T09:05:31;13.20;99.90
23289;DHT22;11813;50.834;4.280;2022-11-02T09:07:59;13.20;99.90
23289;DHT22;11813;50.834;4.280;2022-11-02T09:10:26;13.20;99.90
23289;DHT22;11813;50.834;4.280;2022-11-02T09:12:51;13.30;99.90
23289;DHT22;11813;50.834;4.280;2022-11-02T09:15:17;13.60;99.90
23289;DHT22;11813;50.834;4.280;2022-11-02T09:17:48;13.80;99.90
23289;DHT22;11813;50.834;4.280;2022-11-02T09:20:15;13.80;99.90
23289;DHT22;11813;50.834;4.280;2022-11-02T09:22:42;13.70;99.90
23289;DHT22;11813;50.834;4.280;2022-11-02T09:25:08;13.70;99.90
23289;DHT22;11813;50.834;4.280;2022-11-02T09:27:33;13.90;99.90
23289;DHT22;11813;50.834;4.280;2022-11-02T09:29:59;14.20;99.90
23289;DHT22;11813;50.834;4.280;2022-11-02T09:32:24;14.40;99.90
23289;DHT22;11813;50.834;4.280;2022-11-02T09:34:50;14.40;99.90
23289;DHT22;11813;50.834;4.280;2022-11-02T09:37:16;14.60;99.90
23289;DHT22;11813;50.834;4.280;2022-11-02T09:39:42;14.70;99.90
23289;DHT22;11813;50.834;4.280;2022-11-02T09:44:51;14.90;99.90
23289;DHT22;11813;50.834;4.280;2022-11-02T09:47:18;14.90;99.90
23289;DHT22;11813;50.834;4.280;2022-11-02T09:49:44;14.90;99.90
23289;DHT22;11813;50.834;4.280;2022-11-02T09:52:19;14.90;99.90
23289;DHT22;11813;50.834;4.280;2022-11-02T09:54:49;15.10;99.90
23289;DHT22;11813;50.834;4.280;2022-11-02T09:57:28;15.10;99.90
23289;DHT22;11813;50.834;4.280;2022-11-02T09:59:55;15.20;99.90
23289;DHT22;11813;50.834;4.280;2022-11-02T10:08:23;15.70;99.90
23289;DHT22;11813;50.834;4.280;2022-11-02T10:13:38;16.20;99.90
23289;DHT22;11813;50.834;4.280;2022-11-02T10:16:16;16.30;99.90
23289;DHT22;11813;50.834;4.280;2022-11-02T10:18:44;16.20;99.90
23289;DHT22;11813;50.834;4.280;2022-11-02T10:21:19;16.30;99.90
23289;DHT22;11813;50.834;4.280;2022-11-02T10:23:53;16.30;99.90
23289;DHT22;11813;50.834;4.280;2022-11-02T10:26:35;16.10;99.90
23289;DHT22;11813;50.834;4.280;2022-11-02T10:31:56;16.10;99.90
23289;DHT22;11813;50.834;4.280;2022-11-02T10:34:24;16.10;99.90
23289;DHT22;11813;50.834;4.280;2022-11-02T10:53:41;16.50;99.90
23289;DHT22;11813;50.834;4.280;2022-11-02T11:01:28;16.50;99.90
23289;DHT22;11813;50.834;4.280;2022-11-02T11:06:33;16.30;99.90
23289;DHT22;11813;50.834;4.280;2022-11-02T11:09:03;16.20;99.90
23289;DHT22;11813;50.834;4.280;2022-11-02T11:11:35;16.50;99.90
23289;DHT22;11813;50.834;4.280;2022-11-02T11:14:06;16.50;99.90
23289;DHT22;11813;50.834;4.280;2022-11-02T11:16:43;16.70;99.90
23289;DHT22;11813;50.834;4.280;2022-11-02T11:19:34;17.00;99.90
23289;DHT22;11813;50.834;4.280;2022-11-02T11:22:01;17.20;99.90
23289;DHT22;11813;50.834;4.280;2022-11-02T11:24:29;17.20;99.90
23289;DHT22;11813;50.834;4.280;2022-11-02T11:29:38;17.20;99.90
23289;DHT22;11813;50.834;4.280;2022-11-02T11:32:25;17.20;99.90
23289;DHT22;11813;50.834;4.280;2022-11-02T11:35:02;17.50;99.90
23289;DHT22;11813;50.834;4.280;2022-11-02T11:37:29;17.90;99.90
23289;DHT22;11813;50.834;4.280;2022-11-02T11:42:26;18.20;99.90
23289;DHT22;11813;50.834;4.280;2022-11-02T11:45:16;18.20;99.90
23289;DHT22;11813;50.834;4.280;2022-11-02T11:47:42;18.30;99.90
23289;DHT22;11813;50.834;4.280;2022-11-02T11:50:14;18.30;99.90
23289;DHT22;11813;50.834;4.280;2022-11-02T11:52:40;18.70;99.90
23289;DHT22;11813;50.834;4.280;2022-11-02T11:55:24;18.90;99.90
23289;DHT22;11813;50.834;4.280;2022-11-02T12:03:27;18.90;99.90
23289;DHT22;11813;50.834;4.280;2022-11-02T12:16:38;19.40;99.90
23289;DHT22;11813;50.834;4.280;2022-11-02T12:19:24;19.20;99.90
23289;DHT22;11813;50.834;4.280;2022-11-02T12:24:55;19.30;99.90
23289;DHT22;11813;50.834;4.280;2022-11-02T12:38:52;19.20;99.90
23289;DHT22;11813;50.834;4.280;2022-11-02T12:44:49;18.90;99.90
23289;DHT22;11813;50.834;4.280;2022-11-02T12:55:53;18.70;99.90
23289;DHT22;11813;50.834;4.280;2022-11-02T12:58:25;19.10;99.90
23289;DHT22;11813;50.834;4.280;2022-11-02T13:01:27;19.30;99.90
23289;DHT22;11813;50.834;4.280;2022-11-02T13:04:13;19.50;99.90
23289;DHT22;11813;50.834;4.280;2022-11-02T13:06:47;19.70;99.90
23289;DHT22;11813;50.834;4.280;2022-11-02T13:09:24;19.30;99.90
23289;DHT22;11813;50.834;4.280;2022-11-02T13:11:58;19.20;99.90
23289;DHT22;11813;50.834;4.280;2022-11-02T13:14:30;18.90;99.90
23289;DHT22;11813;50.834;4.280;2022-11-02T13:17:25;18.40;99.90
23289;DHT22;11813;50.834;4.280;2022-11-02T13:19:57;18.10;99.90
23289;DHT22;11813;50.834;4.280;2022-11-02T13:22:27;17.70;99.90
23289;DHT22;11813;50.834;4.280;2022-11-02T13:25:20;17.70;99.90
23289;DHT22;11813;50.834;4.280;2022-11-02T13:27:57;17.50;99.90
23289;DHT22;11813;50.834;4.280;2022-11-02T13:30:23;17.40;99.90
23289;DHT22;11813;50.834;4.280;2022-11-02T13:32:57;17.20;99.90
23289;DHT22;11813;50.834;4.280;2022-11-02T13:35:31;17.30;99.90
23289;DHT22;11813;50.834;4.280;2022-11-02T13:38:03;17.50;99.90
23289;DHT22;11813;50.834;4.280;2022-11-02T13:40:45;17.70;99.90
23289;DHT22;11813;50.834;4.280;2022-11-02T13:46:29;17.80;99.90
23289;DHT22;11813;50.834;4.280;2022-11-02T13:48:59;18.10;99.90
23289;DHT22;11813;50.834;4.280;2022-11-02T13:51:44;18.50;99.90
23289;DHT22;11813;50.834;4.280;2022-11-02T13:54:18;18.70;99.90
23289;DHT22;11813;50.834;4.280;2022-11-02T13:56:46;18.60;99.90
23289;DHT22;11813;50.834;4.280;2022-11-02T13:59:35;18.80;99.90
23289;DHT22;11813;50.834;4.280;2022-11-02T14:02:04;18.80;99.90
23289;DHT22;11813;50.834;4.280;2022-11-02T14:04:41;18.60;99.90
23289;DHT22;11813;50.834;4.280;2022-11-02T14:09:49;18.30;99.90
23289;DHT22;11813;50.834;4.280;2022-11-02T14:30:46;18.60;99.90
23289;DHT22;11813;50.834;4.280;2022-11-02T14:44:46;18.20;99.90
23289;DHT22;11813;50.834;4.280;2022-11-02T14:47:17;18.40;99.90
23289;DHT22;11813;50.834;4.280;2022-11-02T14:50:02;18.50;99.90
23289;DHT22;11813;50.834;4.280;2022-11-02T14:52:32;18.20;99.90
23289;DHT22;11813;50.834;4.280;2022-11-02T14:55:02;18.10;99.90
23289;DHT22;11813;50.834;4.280;2022-11-02T14:57:39;17.90;99.90
23289;DHT22;11813;50.834;4.280;2022-11-02T15:00:23;17.90;99.90
23289;DHT22;11813;50.834;4.280;2022-11-02T15:02:49;17.90;99.90
23289;DHT22;11813;50.834;4.280;2022-11-02T15:08:15;17.90;99.90
23289;DHT22;11813;50.834;4.280;2022-11-02T15:10:44;17.80;99.90
23289;DHT22;11813;50.834;4.280;2022-11-02T15:23:43;17.50;99.90
23289;DHT22;11813;50.834;4.280;2022-11-02T15:26:17;17.20;99.90
23289;DHT22;11813;50.834;4.280;2022-11-02T15:28:45;17.10;99.90
23289;DHT22;11813;50.834;4.280;2022-11-02T15:31:20;17.10;99.90
23289;DHT22;11813;50.834;4.280;2022-11-02T15:33:48;16.90;99.90
23289;DHT22;11813;50.834;4.280;2022-11-02T15:36:35;16.70;99.90
23289;DHT22;11813;50.834;4.280;2022-11-02T15:39:05;16.60;99.90
23289;DHT22;11813;50.834;4.280;2022-11-02T15:41:48;16.40;99.90
23289;DHT22;11813;50.834;4.280;2022-11-02T15:46:48;16.20;99.90
23289;DHT22;11813;50.834;4.280;2022-11-02T15:49:40;16.10;99.90
23289;DHT22;11813;50.834;4.280;2022-11-02T15:52:22;16.00;99.90
23289;DHT22;11813;50.834;4.280;2022-11-02T15:58:00;15.70;99.90
23289;DHT22;11813;50.834;4.280;2022-11-02T16:00:29;15.60;99.90
23289;DHT22;11813;50.834;4.280;2022-11-02T16:03:04;15.50;99.90
23289;DHT22;11813;50.834;4.280;2022-11-02T16:05:41;15.40;99.90
23289;DHT22;11813;50.834;4.280;2022-11-02T16:08:24;15.40;99.90
23289;DHT22;11813;50.834;4.280;2022-11-02T16:10:52;15.40;99.90
23289;DHT22;11813;50.834;4.280;2022-11-02T16:13:27;15.20;99.90
23289;DHT22;11813;50.834;4.280;2022-11-02T16:16:03;15.00;99.90
23289;DHT22;11813;50.834;4.280;2022-11-02T16:18:35;14.90;99.90
23289;DHT22;11813;50.834;4.280;2022-11-02T16:21:05;14.90;99.90
23289;DHT22;11813;50.834;4.280;2022-11-02T16:23:37;14.90;99.90
23289;DHT22;11813;50.834;4.280;2022-11-02T16:26:05;14.80;99.90
23289;DHT22;11813;50.834;4.280;2022-11-02T16:28:35;14.80;99.90
23289;DHT22;11813;50.834;4.280;2022-11-02T16:36:08;14.70;99.90
23289;DHT22;11813;50.834;4.280;2022-11-02T16:38:38;14.60;99.90
23289;DHT22;11813;50.834;4.280;2022-11-02T16:41:09;14.60;99.90
23289;DHT22;11813;50.834;4.280;2022-11-02T16:43:41;14.60;99.90
23289;DHT22;11813;50.834;4.280;2022-11-02T16:46:08;14.70;99.90
23289;DHT22;11813;50.834;4.280;2022-11-02T16:48:34;14.70;99.90
23289;DHT22;11813;50.834;4.280;2022-11-02T16:53:35;14.50;99.90
23289;DHT22;11813;50.834;4.280;2022-11-02T16:58:55;14.30;99.90
23289;DHT22;11813;50.834;4.280;2022-11-02T17:01:25;14.30;99.90
23289;DHT22;11813;50.834;4.280;2022-11-02T17:03:51;14.30;99.90
23289;DHT22;11813;50.834;4.280;2022-11-02T17:06:17;14.30;99.90
23289;DHT22;11813;50.834;4.280;2022-11-02T17:08:44;14.40;99.90
23289;DHT22;11813;50.834;4.280;2022-11-02T17:11:15;14.30;99.90
23289;DHT22;11813;50.834;4.280;2022-11-02T17:13:53;14.40;99.90
23289;DHT22;11813;50.834;4.280;2022-11-02T17:16:20;14.50;99.90
23289;DHT22;11813;50.834;4.280;2022-11-02T17:18:46;14.40;99.90
23289;DHT22;11813;50.834;4.280;2022-11-02T17:23:39;14.30;99.90
23289;DHT22;11813;50.834;4.280;2022-11-02T17:28:48;14.20;99.90
23289;DHT22;11813;50.834;4.280;2022-11-02T17:31:19;14.10;99.90
23289;DHT22;11813;50.834;4.280;2022-11-02T17:33:45;14.10;99.90
23289;DHT22;11813;50.834;4.280;2022-11-02T17:36:12;14.10;99.90
23289;DHT22;11813;50.834;4.280;2022-11-02T17:38:37;14.10;99.90
23289;DHT22;11813;50.834;4.280;2022-11-02T17:41:03;14.10;99.90
23289;DHT22;11813;50.834;4.280;2022-11-02T17:43:49;14.20;99.90
23289;DHT22;11813;50.834;4.280;2022-11-02T17:46:16;14.20;99.90
23289;DHT22;11813;50.834;4.280;2022-11-02T17:48:41;14.20;99.90
23289;DHT22;11813;50.834;4.280;2022-11-02T17:51:08;14.20;99.90
23289;DHT22;11813;50.834;4.280;2022-11-02T17:53:35;14.20;99.90
23289;DHT22;11813;50.834;4.280;2022-11-02T17:56:01;14.20;99.90
23289;DHT22;11813;50.834;4.280;2022-11-02T17:58:27;14.20;99.90
23289;DHT22;11813;50.834;4.280;2022-11-02T18:00:52;14.20;99.90
23289;DHT22;11813;50.834;4.280;2022-11-02T18:03:20;14.20;99.90
23289;DHT22;11813;50.834;4.280;2022-11-02T18:05:46;14.40;99.90
23289;DHT22;11813;50.834;4.280;2022-11-02T18:08:12;14.30;99.90
23289;DHT22;11813;50.834;4.280;2022-11-02T18:10:40;14.10;99.90
23289;DHT22;11813;50.834;4.280;2022-11-02T18:13:07;14.10;99.90
23289;DHT22;11813;50.834;4.280;2022-11-02T18:15:35;14.00;99.90
23289;DHT22;11813;50.834;4.280;2022-11-02T18:18:01;14.10;99.90
23289;DHT22;11813;50.834;4.280;2022-11-02T18:20:27;14.00;99.90
23289;DHT22;11813;50.834;4.280;2022-11-02T18:22:54;14.10;99.90
23289;DHT22;11813;50.834;4.280;2022-11-02T18:25:20;14.00;99.90
23289;DHT22;11813;50.834;4.280;2022-11-02T18:27:46;13.80;99.90
23289;DHT22;11813;50.834;4.280;2022-11-02T18:30:14;14.00;99.90
23289;DHT22;11813;50.834;4.280;2022-11-02T18:32:42;14.00;99.90
23289;DHT22;11813;50.834;4.280;2022-11-02T18:35:10;13.90;99.90
23289;DHT22;11813;50.834;4.280;2022-11-02T18:37:37;13.80;99.90
23289;DHT22;11813;50.834;4.280;2022-11-02T18:40:04;13.80;99.90
23289;DHT22;11813;50.834;4.280;2022-11-02T18:42:30;13.70;99.90